sensor_id;sensor_type;location;lat;lon;timestamp;pressure;altitude;pressure_sealevel;temperature;humidity
78299;BME280;67556;55.656;12.590;2023-03-14T00:01:10;98370.94;;;8.39;69.43
78299;BME280;67556;55.656;12.590;2023-03-14T00:03:36;98370.81;;;8.23;70.08
78299;BME280;67556;55.656;12.590;2023-03-14T00:06:04;98374.41;;;8.35;69.38
78299;BME280;67556;55.656;12.590;2023-03-14T00:08:32;98353.22;;;8.38;69.25
78299;BME280;67556;55.656;12.590;2023-03-14T00:11:04;98347.84;;;8.27;69.34
78299;BME280;67556;55.656;12.590;2023-03-14T00:13:30;98337.25;;;8.32;69.06
78299;BME280;67556;55.656;12.590;2023-03-14T00:16:01;98353.22;;;8.38;68.84
78299;BME280;67556;55.656;12.590;2023-03-14T00:18:28;98349.69;;;8.40;68.53
78299;BME280;67556;55.656;12.590;2023-03-14T00:20:57;98318.66;;;8.25;68.55
78299;BME280;67556;55.656;12.590;2023-03-14T00:23:23;98338.13;;;8.28;68.80
78299;BME280;67556;55.656;12.590;2023-03-14T00:25:51;98324.00;;;8.33;68.68
78299;BME280;67556;55.656;12.590;2023-03-14T00:28:17;98330.25;;;8.41;68.50
78299;BME280;67556;55.656;12.590;2023-03-14T00:30:44;98331.16;;;8.43;68.44
78299;BME280;67556;55.656;12.590;2023-03-14T00:33:10;98316.06;;;8.36;68.85
78299;BME280;67556;55.656;12.590;2023-03-14T00:35:36;98303.69;;;8.35;69.17
78299;BME280;67556;55.656;12.590;2023-03-14T00:38:03;98319.53;;;8.24;69.47
78299;BME280;67556;55.656;12.590;2023-03-14T00:40:29;98298.41;;;8.37;68.79
78299;BME280;67556;55.656;12.590;2023-03-14T00:42:57;98309.00;;;8.37;68.81
78299;BME280;67556;55.656;12.590;2023-03-14T00:45:23;98298.44;;;8.40;68.78
78299;BME280;67556;55.656;12.590;2023-03-14T00:47:50;98304.66;;;8.48;68.36
78299;BME280;67556;55.656;12.590;2023-03-14T00:50:17;98291.31;;;8.36;68.56
78299;BME280;67556;55.656;12.590;2023-03-14T00:52:44;98291.34;;;8.39;68.23
78299;BME280;67556;55.656;12.590;2023-03-14T00:55:12;98295.72;;;8.35;68.68
78299;BME280;67556;55.656;12.590;2023-03-14T00:57:39;98278.97;;;8.41;68.40
78299;BME280;67556;55.656;12.590;2023-03-14T01:00:08;98286.88;;;8.35;68.76
78299;BME280;67556;55.656;12.590;2023-03-14T01:02:37;98298.44;;;8.40;68.45
78299;BME280;67556;55.656;12.590;2023-03-14T01:05:04;98293.94;;;8.33;68.78
78299;BME280;67556;55.656;12.590;2023-03-14T01:07:31;98292.19;;;8.30;68.78
78299;BME280;67556;55.656;12.590;2023-03-14T01:09:57;98301.81;;;8.10;69.33
78299;BME280;67556;55.656;12.590;2023-03-14T01:12:23;98293.78;;;7.96;70.19
78299;BME280;67556;55.656;12.590;2023-03-14T01:14:50;98295.50;;;7.88;70.11
78299;BME280;67556;55.656;12.590;2023-03-14T01:17:17;98293.78;;;7.94;70.04
78299;BME280;67556;55.656;12.590;2023-03-14T01:19:44;98302.66;;;8.07;69.83
78299;BME280;67556;55.656;12.590;2023-03-14T01:22:10;98306.13;;;7.95;69.84
78299;BME280;67556;55.656;12.590;2023-03-14T01:24:37;98285.81;;;7.96;69.94
78299;BME280;67556;55.656;12.590;2023-03-14T01:27:03;98292.88;;;7.95;70.09
78299;BME280;67556;55.656;12.590;2023-03-14T01:29:29;98299.00;;;7.82;70.34
78299;BME280;67556;55.656;12.590;2023-03-14T01:31:56;98280.38;;;7.70;70.70
78299;BME280;67556;55.656;12.590;2023-03-14T01:34:24;98298.09;;;7.79;70.43
78299;BME280;67556;55.656;12.590;2023-03-14T01:36:50;98297.28;;;7.84;70.20
78299;BME280;67556;55.656;12.590;2023-03-14T01:39:16;98307.88;;;7.84;70.46
78299;BME280;67556;55.656;12.590;2023-03-14T01:41:43;98305.16;;;7.77;70.26
78299;BME280;67556;55.656;12.590;2023-03-14T01:44:10;98311.38;;;7.82;70.29
78299;BME280;67556;55.656;12.590;2023-03-14T01:46:40;98305.97;;;7.63;70.89
78299;BME280;67556;55.656;12.590;2023-03-14T01:49:18;98307.72;;;7.61;71.21
78299;BME280;67556;55.656;12.590;2023-03-14T01:51:51;98308.72;;;7.82;70.27
78299;BME280;67556;55.656;12.590;2023-03-14T01:54:23;98322.84;;;7.78;70.24
78299;BME280;67556;55.656;12.590;2023-03-14T01:56:53;98315.81;;;7.84;70.08
78299;BME280;67556;55.656;12.590;2023-03-14T01:59:21;98321.13;;;7.92;69.95
78299;BME280;67556;55.656;12.590;2023-03-14T02:01:50;98311.47;;;7.97;69.40
78299;BME280;67556;55.656;12.590;2023-03-14T02:04:19;98310.59;;;8.04;69.46
78299;BME280;67556;55.656;12.590;2023-03-14T02:06:53;98324.78;;;8.09;69.22
78299;BME280;67556;55.656;12.590;2023-03-14T02:09:22;98317.75;;;8.14;68.57
78299;BME280;67556;55.656;12.590;2023-03-14T02:11:49;98309.81;;;8.19;68.66
78299;BME280;67556;55.656;12.590;2023-03-14T02:14:24;98314.19;;;8.15;68.82
78299;BME280;67556;55.656;12.590;2023-03-14T02:16:52;98308.88;;;8.09;68.98
78299;BME280;67556;55.656;12.590;2023-03-14T02:19:24;98302.72;;;8.19;68.63
78299;BME280;67556;55.656;12.590;2023-03-14T02:22:02;98308.00;;;8.16;68.32
78299;BME280;67556;55.656;12.590;2023-03-14T02:24:36;98314.19;;;8.15;68.45
78299;BME280;67556;55.656;12.590;2023-03-14T02:27:10;98302.66;;;8.07;69.31
78299;BME280;67556;55.656;12.590;2023-03-14T02:29:41;98304.47;;;8.17;68.63
78299;BME280;67556;55.656;12.590;2023-03-14T02:32:11;98309.75;;;8.08;68.81
78299;BME280;67556;55.656;12.590;2023-03-14T02:34:40;98300.94;;;8.09;68.94
78299;BME280;67556;55.656;12.590;2023-03-14T02:37:09;98309.81;;;8.19;68.79
78299;BME280;67556;55.656;12.590;2023-03-14T02:39:38;98315.06;;;8.17;68.77
78299;BME280;67556;55.656;12.590;2023-03-14T02:42:06;98312.44;;;8.17;69.07
78299;BME280;67556;55.656;12.590;2023-03-14T02:44:35;98315.09;;;8.20;68.88
78299;BME280;67556;55.656;12.590;2023-03-14T02:47:02;98324.81;;;8.17;68.85
78299;BME280;67556;55.656;12.590;2023-03-14T02:49:31;98321.31;;;8.24;68.72
78299;BME280;67556;55.656;12.590;2023-03-14T02:51:58;98338.13;;;8.29;68.48
78299;BME280;67556;55.656;12.590;2023-03-14T02:54:24;98344.25;;;8.14;69.20
78299;BME280;67556;55.656;12.590;2023-03-14T02:56:50;98315.91;;;8.03;69.22
78299;BME280;67556;55.656;12.590;2023-03-14T02:59:17;98337.16;;;8.10;69.63
78299;BME280;67556;55.656;12.590;2023-03-14T03:01:44;98335.44;;;8.18;69.41
78299;BME280;67556;55.656;12.590;2023-03-14T03:04:11;98333.69;;;8.30;69.25
78299;BME280;67556;55.656;12.590;2023-03-14T03:06:37;98340.66;;;8.08;70.22
78299;BME280;67556;55.656;12.590;2023-03-14T03:09:04;98328.41;;;8.27;69.57
78299;BME280;67556;55.656;12.590;2023-03-14T03:11:30;98314.28;;;8.31;69.41
78299;BME280;67556;55.656;12.590;2023-03-14T03:13:57;98324.81;;;8.18;70.01
78299;BME280;67556;55.656;12.590;2023-03-14T03:16:24;98330.16;;;8.28;69.99
78299;BME280;67556;55.656;12.590;2023-03-14T03:18:51;98316.03;;;8.32;69.80
78299;BME280;67556;55.656;12.590;2023-03-14T03:21:18;98307.19;;;8.31;69.93
78299;BME280;67556;55.656;12.590;2023-03-14T03:23:48;98305.44;;;8.30;69.93
78299;BME280;67556;55.656;12.590;2023-03-14T03:26:15;98311.63;;;8.35;70.15
78299;BME280;67556;55.656;12.590;2023-03-14T03:28:41;98310.69;;;8.25;70.29
78299;BME280;67556;55.656;12.590;2023-03-14T03:31:08;98308.94;;;8.28;70.48
78299;BME280;67556;55.656;12.590;2023-03-14T03:33:35;98309.84;;;8.31;70.45
78299;BME280;67556;55.656;12.590;2023-03-14T03:36:04;98300.09;;;8.29;70.78
78299;BME280;67556;55.656;12.590;2023-03-14T03:38:30;98287.72;;;8.24;71.49
78299;BME280;67556;55.656;12.590;2023-03-14T03:40:56;98286.84;;;8.22;71.69
78299;BME280;67556;55.656;12.590;2023-03-14T03:43:23;98269.16;;;8.29;71.42
78299;BME280;67556;55.656;12.590;2023-03-14T03:45:49;98277.06;;;8.12;71.63
78299;BME280;67556;55.656;12.590;2023-03-14T03:48:16;98285.00;;;8.12;71.72
78299;BME280;67556;55.656;12.590;2023-03-14T03:50:44;98285.91;;;8.11;71.80
78299;BME280;67556;55.656;12.590;2023-03-14T03:53:12;98281.53;;;8.22;71.36
78299;BME280;67556;55.656;12.590;2023-03-14T03:55:40;98284.13;;;8.10;71.91
78299;BME280;67556;55.656;12.590;2023-03-14T03:58:07;98265.59;;;8.13;71.38
78299;BME280;67556;55.656;12.590;2023-03-14T04:03:09;98275.22;;;7.94;71.57
78299;BME280;67556;55.656;12.590;2023-03-14T04:05:35;98281.44;;;8.01;72.58
78299;BME280;67556;55.656;12.590;2023-03-14T04:08:02;98286.72;;;7.93;72.40
78299;BME280;67556;55.656;12.590;2023-03-14T04:10:33;98288.56;;;8.10;71.92
78299;BME280;67556;55.656;12.590;2023-03-14T04:13:00;98290.25;;;7.95;nan
78299;BME280;67556;55.656;12.590;2023-03-14T04:15:27;98294.72;;;8.01;72.35
78299;BME280;67556;55.656;12.590;2023-03-14T04:17:56;98299.13;;;8.07;72.30
78299;BME280;67556;55.656;12.590;2023-03-14T04:20:22;98292.09;;;8.15;72.11
78299;BME280;67556;55.656;12.590;2023-03-14T04:22:49;98312.41;;;8.11;72.18
78299;BME280;67556;55.656;12.590;2023-03-14T04:25:15;98308.09;;;8.32;71.53
78299;BME280;67556;55.656;12.590;2023-03-14T04:27:43;98307.19;;;8.33;71.39
78299;BME280;67556;55.656;12.590;2023-03-14T04:30:10;98308.97;;;8.32;71.58
78299;BME280;67556;55.656;12.590;2023-03-14T04:32:38;98294.84;;;8.30;71.39
78299;BME280;67556;55.656;12.590;2023-03-14T04:35:06;98313.38;;;8.33;71.46
78299;BME280;67556;55.656;12.590;2023-03-14T04:37:33;98305.44;;;8.32;71.47
78299;BME280;67556;55.656;12.590;2023-03-14T04:39:59;98316.91;;;8.29;71.39
78299;BME280;67556;55.656;12.590;2023-03-14T04:42:26;98300.09;;;8.29;71.09
78299;BME280;67556;55.656;12.590;2023-03-14T04:44:54;98291.25;;;8.23;71.26
78299;BME280;67556;55.656;12.590;2023-03-14T04:47:20;98298.34;;;8.28;71.25
78299;BME280;67556;55.656;12.590;2023-03-14T04:49:47;98289.47;;;8.25;70.74
78299;BME280;67556;55.656;12.590;2023-03-14T04:52:13;98284.22;;;8.35;70.59
78299;BME280;67556;55.656;12.590;2023-03-14T04:54:39;98278.03;;;8.33;70.68
78299;BME280;67556;55.656;12.590;2023-03-14T04:57:06;98270.91;;;8.13;71.30
78299;BME280;67556;55.656;12.590;2023-03-14T04:59:32;98271.78;;;8.14;71.63
78299;BME280;67556;55.656;12.590;2023-03-14T05:02:00;98273.56;;;8.18;71.21
78299;BME280;67556;55.656;12.590;2023-03-14T05:04:26;98264.69;;;8.17;71.38
78299;BME280;67556;55.656;12.590;2023-03-14T05:06:52;98254.16;;;8.34;70.79
78299;BME280;67556;55.656;12.590;2023-03-14T05:09:19;98260.31;;;8.24;71.25
78299;BME280;67556;55.656;12.590;2023-03-14T05:11:45;98248.88;;;8.36;70.82
78299;BME280;67556;55.656;12.590;2023-03-14T05:14:12;98259.53;;;8.40;70.81
78299;BME280;67556;55.656;12.590;2023-03-14T05:16:38;98242.75;;;8.43;70.46
78299;BME280;67556;55.656;12.590;2023-03-14T05:19:06;98244.44;;;8.36;70.51
78299;BME280;67556;55.656;12.590;2023-03-14T05:21:32;98238.28;;;8.42;70.51
78299;BME280;67556;55.656;12.590;2023-03-14T05:23:59;98239.19;;;8.42;70.48
78299;BME280;67556;55.656;12.590;2023-03-14T05:26:26;98219.66;;;8.34;70.55
78299;BME280;67556;55.656;12.590;2023-03-14T05:28:52;98225.91;;;8.42;70.68
78299;BME280;67556;55.656;12.590;2023-03-14T05:31:19;98222.34;;;8.36;70.75
78299;BME280;67556;55.656;12.590;2023-03-14T05:33:45;98224.19;;;8.52;70.46
78299;BME280;67556;55.656;12.590;2023-03-14T05:36:13;98218.88;;;8.52;70.40
78299;BME280;67556;55.656;12.590;2023-03-14T05:38:40;98215.34;;;8.59;70.06
78299;BME280;67556;55.656;12.590;2023-03-14T05:41:06;98210.91;;;8.50;70.12
78299;BME280;67556;55.656;12.590;2023-03-14T05:43:33;98208.25;;;8.46;70.35
78299;BME280;67556;55.656;12.590;2023-03-14T05:45:59;98218.88;;;8.49;70.56
78299;BME280;67556;55.656;12.590;2023-03-14T05:48:25;98217.09;;;8.43;70.62
78299;BME280;67556;55.656;12.590;2023-03-14T05:50:56;98223.28;;;8.44;70.59
78299;BME280;67556;55.656;12.590;2023-03-14T05:53:23;98212.66;;;8.42;70.57
78299;BME280;67556;55.656;12.590;2023-03-14T05:55:51;98208.25;;;8.50;70.00
78299;BME280;67556;55.656;12.590;2023-03-14T05:58:17;98208.22;;;8.38;70.65
78299;BME280;67556;55.656;12.590;2023-03-14T06:00:44;98218.78;;;8.34;70.74
78299;BME280;67556;55.656;12.590;2023-03-14T06:03:10;98223.19;;;8.22;71.50
78299;BME280;67556;55.656;12.590;2023-03-14T06:05:37;98221.44;;;8.28;71.46
78299;BME280;67556;55.656;12.590;2023-03-14T06:08:04;98218.78;;;8.28;71.47
78299;BME280;67556;55.656;12.590;2023-03-14T06:10:31;98211.75;;;8.36;71.28
78299;BME280;67556;55.656;12.590;2023-03-14T06:12:58;98214.47;;;8.53;70.43
78299;BME280;67556;55.656;12.590;2023-03-14T06:15:24;98211.75;;;8.36;71.25
78299;BME280;67556;55.656;12.590;2023-03-14T06:17:51;98223.31;;;8.47;71.00
78299;BME280;67556;55.656;12.590;2023-03-14T06:20:17;98220.63;;;8.44;71.25
78299;BME280;67556;55.656;12.590;2023-03-14T06:22:44;98223.28;;;8.39;71.45
78299;BME280;67556;55.656;12.590;2023-03-14T06:25:10;98238.31;;;8.51;71.15
78299;BME280;67556;55.656;12.590;2023-03-14T06:27:38;98202.94;;;8.37;71.29
78299;BME280;67556;55.656;12.590;2023-03-14T06:30:06;98219.75;;;8.57;70.93
78299;BME280;67556;55.656;12.590;2023-03-14T06:32:33;98218.00;;;8.62;70.97
78299;BME280;67556;55.656;12.590;2023-03-14T06:34:59;98203.84;;;8.59;71.11
78299;BME280;67556;55.656;12.590;2023-03-14T06:37:26;98199.41;;;8.59;70.84
78299;BME280;67556;55.656;12.590;2023-03-14T06:39:52;98213.59;;;8.70;70.62
78299;BME280;67556;55.656;12.590;2023-03-14T06:42:19;98219.78;;;8.65;71.13
78299;BME280;67556;55.656;12.590;2023-03-14T06:44:47;98225.09;;;8.60;71.41
78299;BME280;67556;55.656;12.590;2023-03-14T06:47:17;98225.09;;;8.69;71.38
78299;BME280;67556;55.656;12.590;2023-03-14T06:49:43;98233.94;;;8.68;71.82
78299;BME280;67556;55.656;12.590;2023-03-14T06:52:10;98210.94;;;8.52;72.74
78299;BME280;67556;55.656;12.590;2023-03-14T06:54:36;98216.25;;;8.60;72.78
78299;BME280;67556;55.656;12.590;2023-03-14T06:57:02;98207.38;;;8.71;72.72
78299;BME280;67556;55.656;12.590;2023-03-14T06:59:29;98212.72;;;8.82;72.75
78299;BME280;67556;55.656;12.590;2023-03-14T07:01:56;98211.81;;;8.86;73.26
78299;BME280;67556;55.656;12.590;2023-03-14T07:04:23;98204.75;;;8.81;73.04
78299;BME280;67556;55.656;12.590;2023-03-14T07:06:49;98217.13;;;8.91;73.02
78299;BME280;67556;55.656;12.590;2023-03-14T07:09:16;98218.88;;;8.70;73.78
78299;BME280;67556;55.656;12.590;2023-03-14T07:11:43;98218.88;;;8.57;73.88
78299;BME280;67556;55.656;12.590;2023-03-14T07:14:10;98222.44;;;8.69;73.36
78299;BME280;67556;55.656;12.590;2023-03-14T07:16:36;98217.13;;;8.69;74.07
78299;BME280;67556;55.656;12.590;2023-03-14T07:19:04;98211.78;;;8.54;75.24
78299;BME280;67556;55.656;12.590;2023-03-14T07:21:31;98210.94;;;8.73;75.45
78299;BME280;67556;55.656;12.590;2023-03-14T07:23:59;98218.03;;;8.73;75.47
78299;BME280;67556;55.656;12.590;2023-03-14T07:26:26;98210.94;;;8.77;75.56
78299;BME280;67556;55.656;12.590;2023-03-14T07:28:52;98196.78;;;8.70;75.93
78299;BME280;67556;55.656;12.590;2023-03-14T07:31:18;98195.00;;;8.72;76.02
78299;BME280;67556;55.656;12.590;2023-03-14T07:33:45;98194.13;;;8.78;75.96
78299;BME280;67556;55.656;12.590;2023-03-14T07:36:12;98181.72;;;8.92;75.09
78299;BME280;67556;55.656;12.590;2023-03-14T07:38:39;98208.28;;;8.86;75.39
78299;BME280;67556;55.656;12.590;2023-03-14T07:41:06;98197.66;;;8.89;75.46
78299;BME280;67556;55.656;12.590;2023-03-14T07:43:32;98197.66;;;8.80;75.82
78299;BME280;67556;55.656;12.590;2023-03-14T07:45:59;98190.59;;;8.82;75.43
78299;BME280;67556;55.656;12.590;2023-03-14T07:48:26;98199.44;;;8.81;75.69
78299;BME280;67556;55.656;12.590;2023-03-14T07:50:54;98204.75;;;8.85;75.77
78299;BME280;67556;55.656;12.590;2023-03-14T07:53:23;98199.44;;;8.74;75.92
78299;BME280;67556;55.656;12.590;2023-03-14T07:55:50;98201.19;;;8.88;75.45
78299;BME280;67556;55.656;12.590;2023-03-14T07:58:16;98192.38;;;8.86;75.45
78299;BME280;67556;55.656;12.590;2023-03-14T08:00:43;98187.06;;;8.77;76.09
78299;BME280;67556;55.656;12.590;2023-03-14T08:03:10;98193.25;;;8.91;75.61
78299;BME280;67556;55.656;12.590;2023-03-14T08:05:37;98204.75;;;8.87;76.08
78299;BME280;67556;55.656;12.590;2023-03-14T08:08:04;98201.19;;;8.88;75.81
78299;BME280;67556;55.656;12.590;2023-03-14T08:10:32;98200.31;;;8.89;75.84
78299;BME280;67556;55.656;12.590;2023-03-14T08:12:59;98198.53;;;8.92;75.54
78299;BME280;67556;55.656;12.590;2023-03-14T08:15:27;98190.59;;;8.82;75.44
78299;BME280;67556;55.656;12.590;2023-03-14T08:17:55;98190.59;;;8.77;76.42
78299;BME280;67556;55.656;12.590;2023-03-14T08:20:23;98210.06;;;8.70;75.53
78299;BME280;67556;55.656;12.590;2023-03-14T08:22:49;98203.88;;;8.91;75.44
78299;BME280;67556;55.656;12.590;2023-03-14T08:25:16;98204.75;;;8.84;75.20
78299;BME280;67556;55.656;12.590;2023-03-14T08:27:44;98196.78;;;8.90;75.25
78299;BME280;67556;55.656;12.590;2023-03-14T08:30:12;98204.75;;;8.82;75.37
78299;BME280;67556;55.656;12.590;2023-03-14T08:32:39;98198.53;;;8.75;75.37
78299;BME280;67556;55.656;12.590;2023-03-14T08:35:07;98210.06;;;8.90;74.61
78299;BME280;67556;55.656;12.590;2023-03-14T08:37:34;98206.53;;;8.82;74.99
78299;BME280;67556;55.656;12.590;2023-03-14T08:40:01;98210.94;;;8.80;75.11
78299;BME280;67556;55.656;12.590;2023-03-14T08:42:31;98197.66;;;8.57;76.82
78299;BME280;67556;55.656;12.590;2023-03-14T08:44:59;98225.97;;;8.65;77.10
78299;BME280;67556;55.656;12.590;2023-03-14T08:47:26;98219.78;;;8.56;78.01
78299;BME280;67556;55.656;12.590;2023-03-14T08:49:52;98217.09;;;8.46;78.25
78299;BME280;67556;55.656;12.590;2023-03-14T08:52:19;98219.75;;;8.45;78.68
78299;BME280;67556;55.656;12.590;2023-03-14T08:54:46;98208.25;;;8.55;79.42
78299;BME280;67556;55.656;12.590;2023-03-14T08:57:12;98209.16;;;8.60;79.69
78299;BME280;67556;55.656;12.590;2023-03-14T08:59:39;98219.75;;;8.54;80.52
78299;BME280;67556;55.656;12.590;2023-03-14T09:02:09;98217.97;;;8.44;80.44
78299;BME280;67556;55.656;12.590;2023-03-14T09:04:35;98204.72;;;8.53;81.01
78299;BME280;67556;55.656;12.590;2023-03-14T09:07:02;98231.22;;;8.41;81.46
78299;BME280;67556;55.656;12.590;2023-03-14T09:09:28;98230.34;;;8.43;81.87
78299;BME280;67556;55.656;12.590;2023-03-14T09:11:55;98240.78;;;7.94;80.65
78299;BME280;67556;55.656;12.590;2023-03-14T09:14:22;98274.16;;;7.59;78.90
78299;BME280;67556;55.656;12.590;2023-03-14T09:16:48;98278.16;;;7.03;78.16
78299;BME280;67556;55.656;12.590;2023-03-14T09:19:17;98297.84;;;6.44;78.38
78299;BME280;67556;55.656;12.590;2023-03-14T09:21:43;98310.56;;;6.02;78.86
78299;BME280;67556;55.656;12.590;2023-03-14T09:24:10;98333.06;;;5.75;78.23
78299;BME280;67556;55.656;12.590;2023-03-14T09:26:36;98323.97;;;5.55;78.27
78299;BME280;67556;55.656;12.590;2023-03-14T09:29:02;98336.91;;;5.36;78.04
78299;BME280;67556;55.656;12.590;2023-03-14T09:31:29;98346.88;;;5.03;78.17
78299;BME280;67556;55.656;12.590;2023-03-14T09:33:56;98356.91;;;4.73;79.15
78299;BME280;67556;55.656;12.590;2023-03-14T09:36:23;98364.75;;;4.70;78.81
78299;BME280;67556;55.656;12.590;2023-03-14T09:38:50;98377.44;;;4.91;78.79
78299;BME280;67556;55.656;12.590;2023-03-14T09:41:20;98389.00;;;4.98;78.82
78299;BME280;67556;55.656;12.590;2023-03-14T09:43:48;98384.53;;;4.94;78.21
78299;BME280;67556;55.656;12.590;2023-03-14T09:46:16;98384.63;;;4.98;78.89
78299;BME280;67556;55.656;12.590;2023-03-14T09:48:44;98393.81;;;4.73;78.32
78299;BME280;67556;55.656;12.590;2023-03-14T09:51:13;98401.66;;;4.69;77.27
78299;BME280;67556;55.656;12.590;2023-03-14T09:53:43;98403.19;;;4.59;76.57
78299;BME280;67556;55.656;12.590;2023-03-14T09:56:13;98397.75;;;4.50;77.16
78299;BME280;67556;55.656;12.590;2023-03-14T09:58:41;98407.44;;;4.51;76.45
78299;BME280;67556;55.656;12.590;2023-03-14T10:01:11;98408.69;;;4.26;75.68
78299;BME280;67556;55.656;12.590;2023-03-14T10:03:40;98418.84;;;4.09;76.49
78299;BME280;67556;55.656;12.590;2023-03-14T10:06:10;98431.78;;;4.00;75.81
78299;BME280;67556;55.656;12.590;2023-03-14T10:08:39;98443.75;;;4.23;75.97
78299;BME280;67556;55.656;12.590;2023-03-14T10:11:13;98446.72;;;3.99;76.68
78299;BME280;67556;55.656;12.590;2023-03-14T10:13:48;98459.28;;;4.11;75.64
78299;BME280;67556;55.656;12.590;2023-03-14T10:16:14;98477.91;;;4.20;76.66
78299;BME280;67556;55.656;12.590;2023-03-14T10:18:44;98476.91;;;3.78;77.50
78299;BME280;67556;55.656;12.590;2023-03-14T10:21:20;98483.22;;;3.84;76.64
78299;BME280;67556;55.656;12.590;2023-03-14T10:23:47;98489.69;;;3.97;76.08
78299;BME280;67556;55.656;12.590;2023-03-14T10:26:16;98490.50;;;3.94;76.75
78299;BME280;67556;55.656;12.590;2023-03-14T10:28:45;98507.44;;;4.06;77.34
78299;BME280;67556;55.656;12.590;2023-03-14T10:31:12;98512.56;;;3.99;76.14
78299;BME280;67556;55.656;12.590;2023-03-14T10:33:39;98522.63;;;3.80;74.81
78299;BME280;67556;55.656;12.590;2023-03-14T10:36:15;98518.97;;;3.74;76.26
78299;BME280;67556;55.656;12.590;2023-03-14T10:38:44;98524.19;;;3.73;75.10
78299;BME280;67556;55.656;12.590;2023-03-14T10:41:17;98533.16;;;3.80;74.00
78299;BME280;67556;55.656;12.590;2023-03-14T10:43:44;98550.81;;;3.84;74.83
78299;BME280;67556;55.656;12.590;2023-03-14T10:46:15;98557.28;;;3.63;76.32
78299;BME280;67556;55.656;12.590;2023-03-14T10:48:43;98567.13;;;3.70;75.64
78299;BME280;67556;55.656;12.590;2023-03-14T10:51:18;98563.16;;;3.53;75.85
78299;BME280;67556;55.656;12.590;2023-03-14T10:53:46;98568.47;;;3.55;74.44
78299;BME280;67556;55.656;12.590;2023-03-14T10:56:14;98574.53;;;3.52;75.22
78299;BME280;67556;55.656;12.590;2023-03-14T10:58:43;98567.44;;;3.49;75.52
78299;BME280;67556;55.656;12.590;2023-03-14T11:01:26;98574.38;;;3.46;75.59
78299;BME280;67556;55.656;12.590;2023-03-14T11:03:56;98586.78;;;3.50;74.21
78299;BME280;67556;55.656;12.590;2023-03-14T11:06:30;98594.25;;;3.36;74.19
78299;BME280;67556;55.656;12.590;2023-03-14T11:09:05;98596.31;;;3.46;73.60
78299;BME280;67556;55.656;12.590;2023-03-14T11:11:38;98603.13;;;3.40;72.28
78299;BME280;67556;55.656;12.590;2023-03-14T11:14:17;98625.94;;;3.39;71.08
78299;BME280;67556;55.656;12.590;2023-03-14T11:16:52;98612.16;;;3.49;70.94
78299;BME280;67556;55.656;12.590;2023-03-14T11:19:28;98628.19;;;3.57;72.00
78299;BME280;67556;55.656;12.590;2023-03-14T11:22:04;98627.91;;;3.46;71.27
78299;BME280;67556;55.656;12.590;2023-03-14T11:24:41;98624.41;;;3.47;70.76
78299;BME280;67556;55.656;12.590;2023-03-14T11:27:16;98615.44;;;3.72;70.72
78299;BME280;67556;55.656;12.590;2023-03-14T11:29:53;98621.19;;;3.91;69.77
78299;BME280;67556;55.656;12.590;2023-03-14T11:32:27;98633.03;;;4.08;69.16
78299;BME280;67556;55.656;12.590;2023-03-14T11:34:55;98637.06;;;4.27;69.68
78299;BME280;67556;55.656;12.590;2023-03-14T11:37:26;98633.78;;;4.37;67.19
78299;BME280;67556;55.656;12.590;2023-03-14T11:39:59;98641.66;;;4.36;67.49
78299;BME280;67556;55.656;12.590;2023-03-14T11:42:28;98638.09;;;4.71;66.91
78299;BME280;67556;55.656;12.590;2023-03-14T11:44:59;98634.75;;;4.77;67.25
78299;BME280;67556;55.656;12.590;2023-03-14T11:47:29;98660.94;;;4.71;67.62
78299;BME280;67556;55.656;12.590;2023-03-14T11:50:02;98668.53;;;4.57;67.16
78299;BME280;67556;55.656;12.590;2023-03-14T11:52:32;98664.81;;;4.49;68.02
78299;BME280;67556;55.656;12.590;2023-03-14T11:55:04;98669.53;;;4.62;67.38
78299;BME280;67556;55.656;12.590;2023-03-14T11:57:31;98684.50;;;4.63;66.72
78299;BME280;67556;55.656;12.590;2023-03-14T12:00:02;98689.31;;;4.45;66.58
78299;BME280;67556;55.656;12.590;2023-03-14T12:02:37;98696.53;;;4.52;67.06
78299;BME280;67556;55.656;12.590;2023-03-14T12:05:35;98708.19;;;4.62;66.62
78299;BME280;67556;55.656;12.590;2023-03-14T12:08:30;98695.03;;;4.63;66.35
78299;BME280;67556;55.656;12.590;2023-03-14T12:11:01;98691.25;;;4.52;67.05
78299;BME280;67556;55.656;12.590;2023-03-14T12:13:29;98694.09;;;4.60;67.45
78299;BME280;67556;55.656;12.590;2023-03-14T12:16:01;98698.63;;;4.65;67.18
78299;BME280;67556;55.656;12.590;2023-03-14T12:18:32;98700.59;;;4.75;67.40
78299;BME280;67556;55.656;12.590;2023-03-14T12:21:01;98695.50;;;4.82;66.40
78299;BME280;67556;55.656;12.590;2023-03-14T12:23:35;98710.38;;;4.80;66.52
78299;BME280;67556;55.656;12.590;2023-03-14T12:26:08;98706.84;;;4.79;66.77
78299;BME280;67556;55.656;12.590;2023-03-14T12:28:42;98698.25;;;4.88;65.71
78299;BME280;67556;55.656;12.590;2023-03-14T12:31:40;98706.75;;;5.12;65.23
78299;BME280;67556;55.656;12.590;2023-03-14T12:34:28;98712.91;;;5.13;65.15
78299;BME280;67556;55.656;12.590;2023-03-14T12:37:00;98730.13;;;5.35;65.15
78299;BME280;67556;55.656;12.590;2023-03-14T12:39:43;98724.91;;;5.36;63.08
78299;BME280;67556;55.656;12.590;2023-03-14T12:42:13;98739.88;;;5.39;62.38
78299;BME280;67556;55.656;12.590;2023-03-14T12:44:43;98730.59;;;5.56;62.95
78299;BME280;67556;55.656;12.590;2023-03-14T12:47:44;98753.38;;;5.51;59.98
78299;BME280;67556;55.656;12.590;2023-03-14T12:50:19;98724.59;;;5.63;58.90
78299;BME280;67556;55.656;12.590;2023-03-14T12:52:59;98742.16;;;5.61;58.13
78299;BME280;67556;55.656;12.590;2023-03-14T12:55:34;98752.84;;;5.67;58.61
78299;BME280;67556;55.656;12.590;2023-03-14T12:58:07;98746.97;;;5.81;58.39
78299;BME280;67556;55.656;12.590;2023-03-14T13:00:38;98799.13;;;5.50;57.67
78299;BME280;67556;55.656;12.590;2023-03-14T13:03:18;98782.38;;;5.49;58.25
78299;BME280;67556;55.656;12.590;2023-03-14T13:05:55;98765.78;;;5.55;56.68
78299;BME280;67556;55.656;12.590;2023-03-14T13:08:34;98775.44;;;5.55;57.05
78299;BME280;67556;55.656;12.590;2023-03-14T13:11:01;98796.84;;;5.65;56.06